This is the latest recevied weather packets stored in our database for station/object EA4URC-13. If no packets are shown the sender has not sent any weather packets the latest 10 day(s).
| Time | Temp. | Humidity | Pressure | Rain* | Wind** | Luminosity | Snow |
|---|---|---|---|---|---|---|---|
| 1777406261 | 15° C | 44% | 1001.7 hPa | - | - | - | - |
| 1777405361 | 14.44° C | 46% | 1001.8 hPa | - | - | - | - |
| 1777404461 | 15° C | 45% | 1001.3 hPa | - | - | - | - |
| 1777403561 | 15.56° C | 44% | 1001 hPa | - | - | - | - |
| 1777402661 | 15.56° C | 45% | 1001 hPa | - | - | - | - |
| 1777401761 | 16.11° C | 44% | 1000.4 hPa | - | - | - | - |
| 1777400848 | 16.67° C | 43% | 1000 hPa | - | - | - | - |
| 1777399948 | 15.56° C | 44% | 1000.4 hPa | - | - | - | - |
| 1777399043 | 15.56° C | 43% | 1000.2 hPa | - | - | - | - |
| 1777397319 | 17.78° C | 40% | 999.6 hPa | - | - | - | - |
| 1777396419 | 17.78° C | 39% | 999.5 hPa | - | - | - | - |
| 1777395519 | 18.33° C | 38% | 999.4 hPa | - | - | - | - |
| 1777394619 | 17.78° C | 38% | 999.4 hPa | - | - | - | - |
| 1777393719 | 17.78° C | 38% | 999.4 hPa | - | - | - | - |
| 1777392819 | 18.89° C | 37% | 998.8 hPa | - | - | - | - |
| 1777391919 | 18.33° C | 37% | 999.1 hPa | - | - | - | - |
| 1777391019 | 20° C | 35% | 998.8 hPa | - | - | - | - |
| 1777390119 | 18.89° C | 36% | 999.4 hPa | - | - | - | - |
| 1777389219 | 19.44° C | 36% | 999.5 hPa | - | - | - | - |
| 1777388319 | 18.89° C | 36% | 999.8 hPa | - | - | - | - |
| 1777387419 | 19.44° C | 36% | 999.8 hPa | - | - | - | - |
| 1777385619 | 19.44° C | 36% | 1000.3 hPa | - | - | - | - |
| 1777384719 | 19.44° C | 35% | 1000.4 hPa | - | - | - | - |
| 1777383819 | 21.11° C | 34% | 999.9 hPa | - | - | - | - |
| 1777382919 | 20.56° C | 34% | 1000.1 hPa | - | - | - | - |
* Rain since midnight (hover to see other rain measurements)
** Current wind speed in m/s (hover to see current wind gust speed)